createdAt,value
2019-01-18T00:00:45.231Z,-8.5
2019-01-18T00:01:35.561Z,-8.5
2019-01-18T00:02:24.788Z,-8.5
2019-01-18T00:03:30.666Z,-8.6
2019-01-18T00:04:05.723Z,-8.6
2019-01-18T00:04:56.063Z,-8.6
2019-01-18T00:05:45.836Z,-8.6
2019-01-18T00:06:35.905Z,-8.5
2019-01-18T00:07:25.946Z,-8.6
2019-01-18T00:08:16.028Z,-8.6
2019-01-18T00:09:05.525Z,-8.6
2019-01-18T00:09:56.125Z,-8.6
2019-01-18T00:10:45.627Z,-8.6
2019-01-18T00:11:36.235Z,-8.6
2019-01-18T00:12:26.308Z,-8.6
2019-01-18T00:13:16.355Z,-8.6
2019-01-18T00:14:06.693Z,-8.6
2019-01-18T00:14:56.745Z,-8.7
2019-01-18T00:15:46.811Z,-8.7
2019-01-18T00:16:36.312Z,-8.6
2019-01-18T00:17:26.638Z,-8.6
2019-01-18T00:18:16.420Z,-8.6
2019-01-18T00:19:06.204Z,-8.6
2019-01-18T00:19:57.140Z,-8.7
2019-01-18T00:20:46.592Z,-8.7
2019-01-18T00:21:36.922Z,-8.7
2019-01-18T00:22:27.260Z,-8.7
2019-01-18T00:23:17.320Z,-8.7
2019-01-18T00:24:07.372Z,-8.6
2019-01-18T00:24:57.427Z,-8.6
2019-01-18T00:25:47.219Z,-8.6
2019-01-18T00:26:37.545Z,-8.7
2019-01-18T00:27:27.602Z,-8.7
2019-01-18T00:28:17.717Z,-8.8
2019-01-18T00:29:07.447Z,-8.7
2019-01-18T00:29:57.495Z,-8.8
2019-01-18T00:30:47.289Z,-8.8
2019-01-18T00:31:37.334Z,-8.8
2019-01-18T00:32:27.664Z,-8.8
2019-01-18T00:33:18.006Z,-8.8
2019-01-18T00:34:07.782Z,-8.8
2019-01-18T00:34:58.140Z,-8.8
2019-01-18T00:35:47.894Z,-8.8
2019-01-18T00:36:37.681Z,-8.8
2019-01-18T00:37:28.011Z,-8.7
2019-01-18T00:38:18.057Z,-8.8
2019-01-18T00:39:08.404Z,-8.8
2019-01-18T00:39:57.909Z,-8.8
2019-01-18T00:40:48.244Z,-8.8
2019-01-18T03:08:40.974Z,-9.9
2019-01-18T03:09:30.747Z,-10
2019-01-18T03:10:21.347Z,-10
2019-01-18T03:11:11.497Z,-10
2019-01-18T03:12:00.924Z,-10
2019-01-18T03:12:51.530Z,-10
2019-01-18T03:13:41.559Z,-10.1
2019-01-18T03:14:31.621Z,-10.1
2019-01-18T03:15:21.699Z,-10.1
2019-01-18T03:16:11.179Z,-10.1
2019-01-18T03:17:00.986Z,-10.1
2019-01-18T03:17:51.886Z,-10.1
2019-01-18T03:18:41.967Z,-10.1
2019-01-18T03:19:32.051Z,-10.1
2019-01-18T03:20:22.016Z,-10.1
2019-01-18T03:21:11.816Z,-10.2
2019-01-18T03:22:51.984Z,-10.2
2019-01-18T03:23:41.991Z,-10.2
2019-01-18T03:24:32.093Z,-10.2
2019-01-18T03:25:21.848Z,-10.3
2019-01-18T03:26:11.883Z,-10.3
2019-01-18T03:27:02.481Z,-10.3
2019-01-18T03:27:52.547Z,-10.3
2019-01-18T03:28:42.313Z,-10.3
2019-01-18T03:29:32.653Z,-10.3
2019-01-18T03:30:23.549Z,-10.3
2019-01-18T03:31:12.834Z,-10.3
2019-01-18T03:32:02.882Z,-10.3
2019-01-18T03:32:53.052Z,-10.3
2019-01-18T03:33:42.667Z,-10.3
2019-01-18T03:34:32.998Z,-10.3
2019-01-18T03:35:23.027Z,-10.3
2019-01-18T03:36:12.834Z,-10.3
2019-01-18T03:37:03.215Z,-10.3
2019-01-18T03:37:53.242Z,-10.3
2019-01-18T03:38:43.286Z,-10.3
2019-01-18T03:39:33.346Z,-10.3
2019-01-18T03:40:23.143Z,-10.3
2019-01-18T03:41:12.707Z,-10.3
2019-01-18T03:42:02.745Z,-10.3
2019-01-18T03:42:53.105Z,-10.3
2019-01-18T03:43:43.203Z,-10.3
2019-01-18T03:44:33.199Z,-10.3
2019-01-18T03:45:22.722Z,-10.4
2019-01-18T03:46:13.317Z,-10.4
2019-01-18T03:47:03.366Z,-10.4
2019-01-18T03:47:52.875Z,-10.4
2019-01-18T03:48:43.192Z,-10.4
2019-01-18T03:49:34.034Z,-10.4
2019-01-18T03:50:23.824Z,-10.4
2019-01-18T03:51:13.574Z,-10.4
2019-01-18T03:52:03.911Z,-10.4
2019-01-18T03:52:53.993Z,-10.4
2019-01-18T03:53:44.027Z,-10.5
2019-01-18T03:54:34.359Z,-10.4
2019-01-18T03:55:23.875Z,-10.4
2019-01-18T03:56:14.478Z,-10.4
2019-01-18T03:57:03.999Z,-10.5
2019-01-18T03:57:54.304Z,-10.4
2019-01-18T03:58:44.381Z,-10.4
2019-01-18T03:59:34.194Z,-10.4
2019-01-18T04:00:28.609Z,-10.5
2019-01-18T04:01:14.539Z,-10.5
2019-01-18T04:02:04.638Z,-10.5
2019-01-18T04:02:54.958Z,-10.5
2019-01-18T04:03:44.220Z,-10.5
2019-01-18T04:04:34.556Z,-10.4
2019-01-18T04:05:24.833Z,-10.4
2019-01-18T04:06:15.154Z,-10.5
2019-01-18T04:07:05.209Z,-10.5
2019-01-18T04:07:54.998Z,-10.4
2019-01-18T04:08:45.391Z,-10.4
2019-01-18T04:09:35.386Z,-10.4
2019-01-18T04:10:25.164Z,-10.4
2019-01-18T04:11:15.495Z,-10.5
2019-01-18T04:12:04.988Z,-10.5
2019-01-18T04:12:55.073Z,-10.4
2019-01-18T04:13:44.917Z,-10.4
2019-01-18T04:14:34.956Z,-10.4
2019-01-18T04:15:25.041Z,-10.4
2019-01-18T04:16:15.360Z,-10.4
2019-01-18T04:17:05.413Z,-10.5
2019-01-18T04:17:55.273Z,-10.5
2019-01-18T04:18:45.515Z,-10.6
2019-01-18T04:19:35.770Z,-10.5
2019-01-18T04:20:25.840Z,-10.5
2019-01-18T04:21:16.192Z,-10.5
2019-01-18T04:22:06.264Z,-10.6
2019-01-18T04:22:56.010Z,-10.6
2019-01-18T04:23:46.359Z,-10.6
2019-01-18T04:24:36.397Z,-10.5
2019-01-18T04:25:26.517Z,-10.5
2019-01-18T04:26:16.509Z,-10.4
2019-01-18T04:27:06.564Z,-10.4
2019-01-18T04:27:56.642Z,-10.5
2019-01-18T04:28:46.720Z,-10.5
2019-01-18T04:29:36.194Z,-10.5
2019-01-18T04:30:34.879Z,-10.5
2019-01-18T04:31:16.868Z,-10.6
2019-01-18T04:32:06.907Z,-10.5
2019-01-18T04:32:56.711Z,-10.5
2019-01-18T04:33:46.774Z,-10.5
2019-01-18T04:34:37.084Z,-10.5
2019-01-18T04:35:27.147Z,-10.5
2019-01-18T04:36:16.959Z,-10.6
2019-01-18T04:37:07.239Z,-10.6
2019-01-18T04:37:57.026Z,-10.5
2019-01-18T04:38:47.114Z,-10.5
2019-01-18T04:39:37.145Z,-10.5
2019-01-18T04:40:27.485Z,-10.4
2019-01-18T04:41:17.562Z,-10.4
2019-01-18T04:42:07.325Z,-10.5
2019-01-18T04:42:57.378Z,-10.4
2019-01-18T04:43:47.723Z,-10.4
2019-01-18T04:44:37.759Z,-10.5
2019-01-18T04:45:27.266Z,-10.5
2019-01-18T04:46:17.334Z,-10.6
2019-01-18T04:47:07.129Z,-10.6
2019-01-18T04:47:57.973Z,-10.6
2019-01-18T04:48:47.769Z,-10.6
2019-01-18T04:49:37.589Z,-10.6
2019-01-18T04:50:28.176Z,-10.6
2019-01-18T04:51:17.931Z,-10.5
2019-01-18T04:52:08.268Z,-10.5
2019-01-18T04:52:58.047Z,-10.6
2019-01-18T04:53:48.108Z,-10.6
2019-01-18T04:54:38.162Z,-10.6
2019-01-18T04:55:43.151Z,-10.6
2019-01-18T04:56:18.265Z,-10.6
2019-01-18T04:57:08.595Z,-10.6
2019-01-18T04:57:58.388Z,-10.6
2019-01-18T04:58:48.455Z,-10.6
2019-01-18T04:59:38.790Z,-10.6
2019-01-18T05:00:28.848Z,-10.6
2019-01-18T05:01:18.898Z,-10.6
2019-01-18T05:02:08.400Z,-10.6
2019-01-18T05:02:59.008Z,-10.6
2019-01-18T05:03:49.065Z,-10.6
2019-01-18T05:04:39.137Z,-10.6
2019-01-18T05:05:28.907Z,-10.7
2019-01-18T05:06:18.406Z,-10.7
2019-01-18T05:07:09.285Z,-10.8
2019-01-18T05:07:58.794Z,-10.8
2019-01-18T05:08:49.152Z,-10.8
2019-01-18T05:09:39.189Z,-10.8
2019-01-18T05:10:29.235Z,-10.8
2019-01-18T05:11:19.559Z,-10.8
2019-01-18T05:12:09.065Z,-10.8
2019-01-18T05:12:59.687Z,-10.8
2019-01-18T05:13:49.501Z,-10.8
2019-01-18T05:14:39.789Z,-10.8
2019-01-18T05:15:29.625Z,-10.8
2019-01-18T05:16:19.911Z,-10.8
2019-01-18T05:17:09.681Z,-10.8
2019-01-18T05:18:00.087Z,-10.8
2019-01-18T05:18:50.100Z,-10.8
2019-01-18T05:19:41.564Z,-10.8
2019-01-18T05:20:29.936Z,-10.8
2019-01-18T05:21:19.710Z,-10.9
2019-01-18T05:22:10.004Z,-10.9
2019-01-18T05:23:00.088Z,-10.9
2019-01-18T05:23:50.131Z,-10.9
2019-01-18T05:24:40.173Z,-10.9
2019-01-18T05:25:30.274Z,-10.9
2019-01-18T05:26:20.316Z,-10.9
2019-01-18T05:27:10.353Z,-11
2019-01-18T05:28:00.436Z,-11
2019-01-18T05:28:50.766Z,-11
2019-01-18T05:29:40.297Z,-11
2019-01-18T05:30:30.585Z,-11
2019-01-18T05:31:20.915Z,-11
2019-01-18T05:32:10.423Z,-11
2019-01-18T05:33:01.053Z,-11
2019-01-18T05:33:51.078Z,-11
2019-01-18T05:34:41.157Z,-11
2019-01-18T05:35:31.228Z,-11.1
2019-01-18T05:36:21.287Z,-11.1
2019-01-18T05:37:11.030Z,-11.1
2019-01-18T05:38:01.370Z,-11.1
2019-01-18T05:38:51.417Z,-11.1
2019-01-18T05:39:41.470Z,-11.1
2019-01-18T05:40:31.253Z,-11.1
2019-01-18T05:41:21.308Z,-11.1
2019-01-18T05:42:11.362Z,-11.1
2019-01-18T05:43:01.716Z,-11.2
2019-01-18T05:43:51.472Z,-11.2
2019-01-18T05:44:42.793Z,-11.2
2019-01-18T05:45:31.860Z,-11.2
2019-01-18T05:46:21.663Z,-11.2
2019-01-18T05:47:11.985Z,-11.2
2019-01-18T05:48:01.765Z,-11.2
2019-01-18T05:48:52.117Z,-11.2
2019-01-18T05:49:41.904Z,-11.2
2019-01-18T05:50:31.932Z,-11.2
2019-01-18T05:51:22.248Z,-11.3
2019-01-18T05:52:12.390Z,-11.2
2019-01-18T05:53:02.107Z,-11.2
2019-01-18T05:53:52.664Z,-11.2
2019-01-18T05:54:42.215Z,-11.3
2019-01-18T05:55:32.562Z,-11.2
2019-01-18T05:56:22.326Z,-11.2
2019-01-18T05:57:12.433Z,-11.2
2019-01-18T05:58:02.426Z,-11.2
2019-01-18T05:58:52.491Z,-11.2
2019-01-18T05:59:42.555Z,-11.2
2019-01-18T06:00:32.609Z,-11.2
2019-01-18T06:01:22.775Z,-11.2
2019-01-18T06:02:12.433Z,-11.2
2019-01-18T06:03:03.054Z,-11.3
2019-01-18T06:03:52.877Z,-11.2
2019-01-18T06:04:43.156Z,-11.2
2019-01-18T06:06:41.103Z,-11.2
2019-01-18T06:07:31.189Z,-11.2
2019-01-18T06:08:21.295Z,-11.2
2019-01-18T06:09:11.031Z,-11.2
2019-01-18T06:10:01.335Z,-11.1
2019-01-18T06:10:51.378Z,-11.1
2019-01-18T06:11:41.421Z,-11.2
2019-01-18T06:12:31.221Z,-11.1
2019-01-18T06:13:21.564Z,-11.1
2019-01-18T06:14:11.048Z,-11.1
2019-01-18T06:15:01.168Z,-11.1
2019-01-18T06:15:51.495Z,-11.1
2019-01-18T06:16:41.768Z,-11.1
2019-01-18T06:17:31.828Z,-11.1
2019-01-18T06:18:21.610Z,-11
2019-01-18T06:19:11.945Z,-10.9
2019-01-18T06:20:02.158Z,-10.9
2019-01-18T06:20:52.035Z,-10.9
2019-01-18T06:21:42.108Z,-10.8
2019-01-18T06:22:32.173Z,-10.8
2019-01-18T06:23:22.228Z,-10.7
2019-01-18T06:24:11.725Z,-10.6
2019-01-18T06:25:02.421Z,-10.6
2019-01-18T06:25:52.118Z,-10.5
2019-01-18T06:26:42.454Z,-10.4
2019-01-18T06:27:32.005Z,-10.4
2019-01-18T06:28:22.007Z,-10.3
2019-01-18T06:29:12.592Z,-10.3
2019-01-18T06:30:02.702Z,-10.1
2019-01-18T06:30:52.731Z,-10.1
2019-01-18T06:31:42.779Z,-10
2019-01-18T06:32:32.544Z,-9.9
2019-01-18T06:33:22.905Z,-9.9
2019-01-18T06:34:12.717Z,-9.8
2019-01-18T06:35:03.049Z,-9.7
2019-01-18T06:35:52.811Z,-9.6
2019-01-18T06:37:32.682Z,-9.4
2019-01-18T06:38:23.219Z,-9.4
2019-01-18T06:39:13.287Z,-9.3
2019-01-18T06:40:03.339Z,-9.2
2019-01-18T06:40:53.389Z,-9.1
2019-01-18T06:41:43.442Z,-9
2019-01-18T06:42:33.247Z,-8.9
2019-01-18T06:43:23.566Z,-8.8
2019-01-18T06:44:13.619Z,-8.6
2019-01-18T06:45:03.409Z,-8.4
2019-01-18T06:45:53.727Z,-8.2
2019-01-18T06:46:43.046Z,-7.9
2019-01-18T06:47:33.581Z,-7.5
2019-01-18T06:48:23.933Z,-7
2019-01-18T06:49:13.688Z,-6.5
2019-01-18T06:50:03.748Z,-5.9
2019-01-18T06:50:54.052Z,-5.3
2019-01-18T06:51:44.142Z,-4.6
2019-01-18T06:52:33.900Z,-4
2019-01-18T06:53:24.230Z,-3.4
2019-01-18T06:54:14.287Z,-2.8
2019-01-18T06:55:04.366Z,-2.1
2019-01-18T06:55:54.408Z,-1.6
2019-01-18T06:56:44.193Z,-1
2019-01-18T06:57:34.247Z,-0.4
2019-01-18T06:58:24.566Z,0.1
2019-01-18T06:59:14.342Z,0.7
2019-01-18T07:00:04.483Z,1.2
2019-01-18T07:00:54.750Z,1.7
2019-01-18T07:01:44.525Z,2.3
2019-01-18T07:02:34.578Z,2.8
2019-01-18T07:03:24.635Z,3.2
2019-01-18T07:04:14.694Z,3.6
2019-01-18T07:06:40.507Z,4.8
2019-01-18T07:07:31.093Z,5.3
2019-01-18T07:08:20.885Z,5.7
2019-01-18T07:09:11.214Z,6.1
2019-01-18T07:10:01.280Z,6.4
2019-01-18T07:10:50.770Z,6.8
2019-01-18T07:11:41.105Z,7.1
2019-01-18T07:12:31.161Z,7.5
2019-01-18T07:13:21.219Z,7.9
2019-01-18T07:14:11.267Z,8.3
2019-01-18T07:15:01.725Z,8.7
2019-01-18T07:15:51.651Z,9.1
2019-01-18T07:16:41.434Z,9.6
2019-01-18T07:17:31.226Z,10.1
2019-01-18T07:18:22.889Z,10.6
2019-01-18T07:19:11.884Z,11.1
2019-01-18T07:20:01.939Z,11.6
2019-01-18T07:20:51.721Z,12.1
2019-01-18T07:21:42.057Z,12.5
2019-01-18T07:22:31.831Z,13
2019-01-18T07:23:22.166Z,13.4
2019-01-18T07:24:12.221Z,13.8
2019-01-18T07:25:02.036Z,14.3
2019-01-18T07:25:52.341Z,14.7
2019-01-18T07:26:42.138Z,15.1
2019-01-18T07:27:32.563Z,15.6
2019-01-18T07:28:22.509Z,16.1
2019-01-18T07:29:12.588Z,16.4
2019-01-18T07:30:02.631Z,16.8
2019-01-18T07:30:52.393Z,17.1
2019-01-18T07:31:42.193Z,17.3
2019-01-18T07:32:32.266Z,17.6
2019-01-18T07:33:22.868Z,17.8
2019-01-18T07:34:12.911Z,18
2019-01-18T07:35:02.980Z,18.2
2019-01-18T07:35:53.011Z,18.4
2019-01-18T07:36:43.085Z,18.6
2019-01-18T07:38:22.630Z,18.9
2019-01-18T07:39:12.970Z,19.2
2019-01-18T07:40:03.325Z,19.6
2019-01-18T07:40:53.080Z,19.9
2019-01-18T07:41:43.142Z,20.4
2019-01-18T07:42:33.492Z,20.9
2019-01-18T07:43:23.545Z,21.6
2019-01-18T07:44:13.646Z,22.4
2019-01-18T07:45:03.680Z,23.1
2019-01-18T07:45:52.890Z,23.8
2019-01-18T07:46:43.524Z,24.5
2019-01-18T07:47:33.835Z,25.3
2019-01-18T07:48:23.897Z,26
2019-01-18T07:49:13.957Z,26.8
2019-01-18T07:50:03.771Z,27.7
2019-01-18T07:50:53.499Z,28.5
2019-01-18T07:51:43.884Z,29.3
2019-01-18T07:52:34.172Z,30
2019-01-18T07:53:24.232Z,30.8
2019-01-18T07:54:13.726Z,31.5
2019-01-18T07:55:03.789Z,32.3
2019-01-18T07:55:54.116Z,33.1
2019-01-18T07:56:44.459Z,33.9
2019-01-18T07:57:34.244Z,34.5
2019-01-18T07:58:24.291Z,35.2
2019-01-18T07:59:14.614Z,35.9
2019-01-18T08:00:04.700Z,36.5
2019-01-18T08:00:54.741Z,37.1
2019-01-18T08:01:44.801Z,37.8
2019-01-18T08:02:34.588Z,38.4
2019-01-18T08:03:24.650Z,39
2019-01-18T08:04:14.698Z,39.6
2019-01-18T08:05:04.783Z,40.3
2019-01-18T08:05:54.809Z,40.9
2019-01-18T08:06:44.861Z,41.6
2019-01-18T08:07:35.200Z,42.3
2019-01-18T08:08:25.261Z,42.9
2019-01-18T08:09:15.301Z,43.6
2019-01-18T08:10:05.078Z,44.3
2019-01-18T08:10:55.438Z,44.8
2019-01-18T08:11:44.979Z,45.4
2019-01-18T08:12:35.538Z,45.9
2019-01-18T08:13:25.593Z,46.5
2019-01-18T08:14:15.653Z,47.1
2019-01-18T08:15:05.718Z,47.7
2019-01-18T08:15:55.773Z,48.3
2019-01-18T08:16:45.528Z,49
2019-01-18T08:17:35.890Z,49.6
2019-01-18T08:18:25.657Z,50.2
2019-01-18T08:19:15.995Z,50.8
2019-01-18T08:20:06.045Z,51.4
2019-01-18T08:20:56.112Z,52
2019-01-18T08:21:46.167Z,52.5
2019-01-18T08:22:36.228Z,52.9
2019-01-18T08:23:26.002Z,53.1
2019-01-18T08:24:16.337Z,53.4
2019-01-18T08:25:06.132Z,53.8
2019-01-18T08:25:56.175Z,54
2019-01-18T08:26:46.561Z,54.2
2019-01-18T08:27:36.570Z,54.4
2019-01-18T08:28:26.614Z,54.6
2019-01-18T08:29:16.406Z,54.8
2019-01-18T08:30:06.745Z,55.1
2019-01-18T08:30:56.789Z,55.3
2019-01-18T08:31:46.851Z,55.6
2019-01-18T08:32:36.657Z,55.9
2019-01-18T08:33:26.692Z,56.5
2019-01-18T08:34:16.267Z,57.1
2019-01-18T08:35:07.089Z,57.6
2019-01-18T08:35:56.657Z,58.2
2019-01-18T08:36:46.917Z,58.8
2019-01-18T08:37:36.971Z,59.3
2019-01-18T08:38:27.339Z,59.6
2019-01-18T08:39:17.094Z,59.8
2019-01-18T08:40:07.144Z,60
2019-01-18T08:40:57.491Z,60.1
2019-01-18T08:41:47.299Z,60.3
2019-01-18T08:42:37.327Z,60.3
2019-01-18T08:43:27.376Z,60.3
2019-01-18T08:44:17.713Z,60.3
2019-01-18T08:45:07.763Z,60.3
2019-01-18T08:45:57.540Z,60.4
2019-01-18T08:46:47.879Z,60.3
2019-01-18T08:47:37.669Z,60.3
2019-01-18T08:48:27.993Z,60.2
2019-01-18T08:49:18.068Z,60.1
2019-01-18T08:50:08.100Z,59.9
2019-01-18T08:50:58.148Z,59.6
2019-01-18T08:51:47.655Z,59.3
2019-01-18T08:52:38.283Z,59.2
2019-01-18T08:53:27.778Z,59
2019-01-18T08:54:18.386Z,58.8
2019-01-18T08:55:07.900Z,58.6
2019-01-18T08:55:58.213Z,58.4
2019-01-18T08:56:48.273Z,58.3
2019-01-18T08:57:38.615Z,58
2019-01-18T08:59:18.218Z,57.6
2019-01-18T09:00:08.243Z,57.4
2019-01-18T09:00:58.012Z,57.1
2019-01-18T09:01:48.920Z,56.9
2019-01-18T09:02:38.680Z,56.6
2019-01-18T09:03:29.033Z,56.3
2019-01-18T09:04:18.242Z,55.9
2019-01-18T09:05:09.945Z,55.5
2019-01-18T09:05:58.912Z,55.1
2019-01-18T09:06:48.780Z,54.8
2019-01-18T09:07:38.747Z,54.4
2019-01-18T09:08:29.120Z,54.1
2019-01-18T09:09:18.913Z,53.7
2019-01-18T09:10:09.200Z,53.4
2019-01-18T09:10:59.252Z,53
2019-01-18T09:11:49.033Z,52.6
2019-01-18T09:12:39.647Z,52.1
2019-01-18T09:13:29.700Z,51.6
2019-01-18T09:14:21.737Z,51.3
2019-01-18T09:15:09.550Z,50.8
2019-01-18T09:15:59.311Z,50.3
2019-01-18T09:16:49.652Z,49.9
2019-01-18T09:17:39.731Z,49.4
2019-01-18T09:18:30.040Z,49.1
2019-01-18T09:19:19.554Z,48.7
2019-01-18T09:20:09.869Z,48.3
2019-01-18T09:21:00.214Z,47.8
2019-01-18T09:21:50.275Z,47.3
2019-01-18T09:22:40.321Z,46.9
2019-01-18T09:23:30.394Z,46.6
2019-01-18T09:24:19.962Z,46.1
2019-01-18T09:25:10.507Z,45.8
2019-01-18T09:26:00.001Z,45.4
2019-01-18T09:26:50.613Z,45.1
2019-01-18T09:27:40.685Z,44.8
2019-01-18T09:28:30.169Z,44.4
2019-01-18T09:29:20.816Z,44.1
2019-01-18T09:30:10.563Z,43.8
2019-01-18T09:31:00.901Z,43.5
2019-01-18T09:31:50.691Z,43.3
2019-01-18T09:32:41.018Z,43.1
2019-01-18T09:33:31.078Z,42.9
2019-01-18T09:34:21.143Z,42.6
2019-01-18T09:35:10.625Z,42.4
2019-01-18T09:36:00.963Z,42.1
2019-01-18T09:36:51.283Z,41.9
2019-01-18T09:37:41.360Z,41.8
2019-01-18T09:38:31.155Z,41.6
2019-01-18T09:39:21.198Z,41.5
2019-01-18T09:40:11.537Z,41.4
2019-01-18T09:41:01.020Z,41.3
2019-01-18T09:41:51.648Z,41.2
2019-01-18T09:42:41.740Z,41.1
2019-01-18T09:43:31.205Z,40.9
2019-01-18T09:44:21.813Z,40.8
2019-01-18T09:45:11.877Z,40.6
2019-01-18T09:46:01.647Z,40.4
2019-01-18T09:46:51.987Z,40.3
2019-01-18T09:47:42.040Z,40.1
2019-01-18T09:48:32.097Z,39.9
2019-01-18T09:49:21.608Z,39.8
2019-01-18T09:50:11.974Z,39.6
2019-01-18T09:51:02.262Z,39.3
2019-01-18T09:51:52.326Z,39.1
2019-01-18T09:52:42.110Z,38.9
2019-01-18T09:53:32.454Z,38.7
2019-01-18T09:54:21.946Z,38.6
2019-01-18T09:55:12.270Z,38.3
2019-01-18T09:56:02.334Z,38.1
2019-01-18T09:56:52.394Z,37.9
2019-01-18T09:57:42.449Z,37.8
2019-01-18T09:58:32.519Z,37.7
2019-01-18T09:59:22.602Z,37.4
2019-01-18T10:00:12.904Z,37.3
2019-01-18T10:01:03.621Z,37.1
2019-01-18T10:01:52.191Z,36.9
2019-01-18T10:02:42.794Z,36.7
2019-01-18T10:03:33.126Z,36.4
2019-01-18T10:04:22.919Z,36.3
2019-01-18T10:05:12.966Z,36.1
2019-01-18T10:07:40.153Z,35.7
2019-01-18T10:08:30.671Z,35.5
2019-01-18T10:09:21.001Z,35.3
2019-01-18T10:10:10.291Z,35.2
2019-01-18T10:11:00.063Z,35.1
2019-01-18T10:11:50.895Z,34.9
2019-01-18T10:12:40.735Z,34.9
2019-01-18T10:13:32.511Z,34.9
2019-01-18T10:14:21.336Z,35
2019-01-18T10:15:10.445Z,35.2
2019-01-18T10:16:00.981Z,35.4
2019-01-18T10:16:50.745Z,35.6
2019-01-18T10:17:41.283Z,36.1
2019-01-18T10:18:31.138Z,36.4
2019-01-18T10:19:21.688Z,36.8
2019-01-18T10:20:11.735Z,37.1
2019-01-18T10:21:01.846Z,37.5
2019-01-18T10:21:51.333Z,38.1
2019-01-18T10:22:41.155Z,38.8
2019-01-18T10:23:31.213Z,39.4
2019-01-18T10:24:23.240Z,40.1
2019-01-18T10:25:12.119Z,40.8
2019-01-18T10:26:02.142Z,41.5
2019-01-18T10:26:52.183Z,42.3
2019-01-18T10:27:42.246Z,42.9
2019-01-18T10:28:31.754Z,43.4
2019-01-18T10:29:28.742Z,43.9
2019-01-18T10:30:12.427Z,44.3
2019-01-18T10:31:02.540Z,44.6
2019-01-18T10:31:58.410Z,45.1
2019-01-18T10:32:42.052Z,45.6
2019-01-18T10:33:32.662Z,46.1
2019-01-18T10:34:22.716Z,46.5
2019-01-18T10:35:12.769Z,46.9
2019-01-18T10:36:02.279Z,47.3
2019-01-18T10:36:52.602Z,47.7
2019-01-18T10:37:42.936Z,48.1
2019-01-18T10:38:32.997Z,48.6
2019-01-18T10:39:23.047Z,49
2019-01-18T10:40:13.106Z,49.4
2019-01-18T10:41:03.171Z,50
2019-01-18T10:41:52.964Z,50.6
2019-01-18T10:42:43.284Z,51.1
2019-01-18T10:43:33.056Z,51.7
2019-01-18T10:44:23.391Z,52.3
2019-01-18T10:45:13.179Z,52.7
2019-01-18T10:46:03.240Z,53.1
2019-01-18T10:46:52.723Z,53.4
2019-01-18T10:47:43.349Z,53.8
2019-01-18T10:48:33.744Z,54.1
2019-01-18T10:49:23.459Z,54.3
2019-01-18T10:50:13.286Z,54.5
2019-01-18T10:51:03.870Z,54.6
2019-01-18T10:51:53.632Z,54.5
2019-01-18T10:52:43.686Z,54.6
2019-01-18T10:53:33.793Z,54.7
2019-01-18T10:54:23.798Z,54.7
2019-01-18T10:55:14.150Z,54.7
2019-01-18T10:56:03.968Z,54.7
2019-01-18T10:56:53.688Z,54.6
2019-01-18T10:57:44.063Z,54.6
2019-01-18T10:58:34.384Z,54.6
2019-01-18T10:59:24.138Z,54.5
2019-01-18T11:00:14.477Z,54.5
2019-01-18T11:01:04.532Z,54.5
2019-01-18T11:02:08.338Z,54.5
2019-01-18T11:02:44.637Z,54.6
2019-01-18T11:03:34.400Z,54.5
2019-01-18T11:04:24.475Z,54.4
2019-01-18T11:05:14.808Z,54.5
2019-01-18T11:06:04.893Z,54.5
2019-01-18T11:06:54.650Z,54.5
2019-01-18T11:07:44.693Z,54.4
2019-01-18T11:08:34.745Z,54.4
2019-01-18T11:09:24.807Z,54.4
2019-01-18T11:10:14.855Z,54.5
2019-01-18T11:11:04.642Z,54.6
2019-01-18T11:11:55.252Z,54.6
2019-01-18T11:12:45.303Z,54.8
2019-01-18T11:13:35.375Z,54.9
2019-01-18T11:14:25.144Z,54.9
2019-01-18T11:15:15.482Z,54.9
2019-01-18T11:16:05.554Z,55
2019-01-18T11:16:55.402Z,55.1
2019-01-18T11:17:45.662Z,55.1
2019-01-18T11:18:35.709Z,55.1
2019-01-18T11:19:25.483Z,55
2019-01-18T11:20:15.550Z,54.8
2019-01-18T11:21:05.889Z,54.6
2019-01-18T11:21:55.652Z,54.3
2019-01-18T11:22:45.454Z,54.2
2019-01-18T11:23:36.054Z,54
2019-01-18T11:24:26.111Z,53.8
2019-01-18T11:25:16.969Z,53.4
2019-01-18T11:26:05.684Z,53.1
2019-01-18T11:26:56.003Z,52.9
2019-01-18T11:27:46.331Z,52.6
2019-01-18T11:29:26.446Z,52.1
2019-01-18T11:30:16.528Z,51.8
2019-01-18T11:31:06.561Z,51.5
2019-01-18T11:31:56.618Z,51.1
2019-01-18T11:32:46.406Z,50.8
2019-01-18T11:33:36.491Z,50.4
2019-01-18T11:34:26.218Z,50
2019-01-18T11:35:16.889Z,49.6
2019-01-18T11:36:06.618Z,49.2
2019-01-18T11:36:59.930Z,48.8
2019-01-18T11:37:46.740Z,48.4
2019-01-18T11:38:36.798Z,48.2
2019-01-18T11:39:26.882Z,47.9
2019-01-18T11:40:16.628Z,47.7
2019-01-18T11:41:06.978Z,47.3
2019-01-18T11:41:57.303Z,46.9
2019-01-18T11:42:47.413Z,46.7
2019-01-18T11:43:36.863Z,46.4
2019-01-18T11:44:27.202Z,46
2019-01-18T11:45:17.568Z,45.8
2019-01-18T11:46:07.048Z,45.6
2019-01-18T11:46:57.375Z,45.5
2019-01-18T11:47:47.430Z,45.3
2019-01-18T11:48:37.774Z,45.1
2019-01-18T11:49:27.820Z,44.9
2019-01-18T11:50:17.867Z,44.9
2019-01-18T11:51:07.380Z,44.9
2019-01-18T11:51:58.004Z,45.1
2019-01-18T11:52:47.767Z,45.2
2019-01-18T11:53:37.837Z,45.3
2019-01-18T11:54:28.169Z,45.4
2019-01-18T11:55:17.970Z,45.6
2019-01-18T11:56:08.291Z,45.8
2019-01-18T11:56:58.077Z,46.1
2019-01-18T11:57:48.142Z,46.3
2019-01-18T11:58:38.174Z,46.5
2019-01-18T11:59:28.224Z,46.6
2019-01-18T12:00:18.294Z,46.7
2019-01-18T12:01:08.344Z,46.8
2019-01-18T12:01:58.389Z,46.8
2019-01-18T12:02:48.453Z,46.8
2019-01-18T12:03:38.779Z,46.8
2019-01-18T12:04:28.604Z,46.7
2019-01-18T12:05:18.894Z,46.7
2019-01-18T12:07:40.514Z,47
2019-01-18T12:08:30.846Z,47.2
2019-01-18T12:09:20.902Z,47.4
2019-01-18T12:10:10.958Z,47.6
2019-01-18T12:11:01.019Z,47.8
2019-01-18T12:11:51.056Z,48.1
2019-01-18T12:12:40.853Z,48.4
2019-01-18T12:13:30.908Z,48.8
2019-01-18T12:14:21.239Z,49.1
2019-01-18T12:15:11.017Z,49.5
2019-01-18T12:16:00.808Z,49.9
2019-01-18T12:16:51.141Z,50.4
2019-01-18T12:17:41.196Z,50.8
2019-01-18T12:18:31.253Z,51.2
2019-01-18T12:19:21.586Z,51.5
2019-01-18T12:20:11.363Z,51.9
2019-01-18T12:21:01.140Z,52.3
2019-01-18T12:21:51.473Z,52.5
2019-01-18T12:22:41.805Z,52.8
2019-01-18T12:23:31.862Z,52.9
2019-01-18T12:24:21.928Z,52.9
2019-01-18T12:25:11.990Z,52.9
2019-01-18T12:26:02.065Z,52.9
2019-01-18T12:26:52.093Z,52.9
2019-01-18T12:27:41.897Z,52.9
2019-01-18T12:28:31.940Z,52.9
2019-01-18T12:29:23.555Z,53
2019-01-18T12:30:12.322Z,53
2019-01-18T12:31:02.388Z,52.9
2019-01-18T12:31:52.161Z,52.8
2019-01-18T12:32:41.938Z,52.6
2019-01-18T12:33:32.269Z,52.4
2019-01-18T12:34:22.336Z,52.3
2019-01-18T12:35:11.836Z,52.2
2019-01-18T12:36:02.460Z,52.1
2019-01-18T12:37:00.668Z,52.1
2019-01-18T12:37:42.838Z,52
2019-01-18T12:39:22.958Z,51.8
2019-01-18T12:40:12.725Z,51.7
2019-01-18T12:41:02.250Z,51.4
2019-01-18T12:41:53.141Z,51.3
2019-01-18T12:42:42.642Z,51.1
2019-01-18T12:43:32.962Z,50.9
2019-01-18T12:44:23.303Z,50.7
2019-01-18T12:45:12.802Z,50.3
2019-01-18T12:46:03.141Z,50
2019-01-18T12:46:52.935Z,49.8
2019-01-18T12:47:43.530Z,49.4
2019-01-18T12:48:33.033Z,49.1
2019-01-18T12:49:23.644Z,48.8
2019-01-18T12:50:13.698Z,48.5
2019-01-18T12:51:04.977Z,48.1
2019-01-18T12:51:53.547Z,47.8
2019-01-18T12:52:43.589Z,47.4
2019-01-18T12:53:33.649Z,47.2
2019-01-18T12:54:23.988Z,46.8
2019-01-18T12:55:14.035Z,46.6
2019-01-18T12:56:03.814Z,46.2
2019-01-18T12:56:53.869Z,45.8
2019-01-18T12:57:43.944Z,45.6
2019-01-18T12:58:34.002Z,45.3
2019-01-18T12:59:24.337Z,45
2019-01-18T13:00:14.429Z,44.8
2019-01-18T13:01:04.430Z,44.6
2019-01-18T13:01:54.234Z,44.3
2019-01-18T13:02:44.274Z,44.1
2019-01-18T13:03:34.608Z,43.8
2019-01-18T13:04:24.399Z,43.6
2019-01-18T13:05:14.509Z,43.3
2019-01-18T13:06:04.236Z,43.1
2019-01-18T13:06:54.622Z,42.9
2019-01-18T13:07:44.646Z,42.6
2019-01-18T13:08:35.937Z,42.3
2019-01-18T13:09:25.021Z,42.1
2019-01-18T13:10:14.597Z,41.9
2019-01-18T13:11:04.584Z,41.7
2019-01-18T13:11:55.205Z,41.4
2019-01-18T13:12:45.279Z,41.3
2019-01-18T13:13:34.755Z,41.1
2019-01-18T13:14:25.092Z,40.9
2019-01-18T13:15:15.155Z,40.7
2019-01-18T13:16:05.506Z,40.4
2019-01-18T13:16:55.543Z,40.2
2019-01-18T13:17:45.583Z,39.9
2019-01-18T13:18:35.383Z,39.8
2019-01-18T13:19:25.443Z,39.6
2019-01-18T13:20:15.216Z,39.4
2019-01-18T13:21:05.553Z,39.3
2019-01-18T13:21:55.592Z,39
2019-01-18T13:22:45.673Z,38.8
2019-01-18T13:23:36.003Z,38.6
2019-01-18T13:24:25.803Z,38.4
2019-01-18T13:25:15.580Z,38.2
2019-01-18T13:26:06.230Z,37.9
2019-01-18T13:26:55.960Z,37.8
2019-01-18T13:27:46.280Z,37.4
2019-01-18T13:28:36.328Z,37.1
2019-01-18T13:29:26.145Z,36.8
2019-01-18T13:30:16.465Z,36.6
2019-01-18T13:31:06.237Z,36.4
2019-01-18T13:31:56.584Z,36.2
2019-01-18T13:32:46.644Z,35.9
2019-01-18T13:33:36.686Z,35.8
2019-01-18T13:34:26.507Z,35.6
2019-01-18T13:35:15.792Z,35.4
2019-01-18T13:36:06.854Z,35.3
2019-01-18T13:36:56.940Z,35
2019-01-18T13:37:46.979Z,34.8
2019-01-18T13:38:36.759Z,34.6
2019-01-18T13:39:26.825Z,34.4
2019-01-18T13:40:16.897Z,34.1
2019-01-18T13:41:06.932Z,33.9